Time;durP1;ratioP1;P1;durP2;ratioP2;P2;SDS_P1;SDS_P2;PMS_P1;PMS_P2;Temp;Humidity;BMP_temperature;BMP_pressure;BME280_temperature;BME280_humidity;BME280_pressure;Samples;Min_cycle;Max_cycle;Signal;HPM_P1;HPM_P2
2021/08/15 00:00:34;;;;;;;7.00;6.13;;;;;;;24.43;63.54;96876.72;5047861;28;20216;-63
2021/08/15 00:02:59;;;;;;;7.57;6.38;;;;;;;24.34;63.78;96876.72;5043379;28;20665;-63
2021/08/15 00:05:25;;;;;;;6.85;6.15;;;;;;;24.20;64.61;96881.38;5025345;28;20181;-62
2021/08/15 00:07:50;;;;;;;7.93;5.88;;;;;;;24.16;64.32;96880.41;5040090;28;20186;-65
2021/08/15 00:10:16;;;;;;;10.50;6.80;;;;;;;24.18;64.71;96874.78;5037869;28;20190;-62
2021/08/15 00:12:41;;;;;;;8.70;6.93;;;;;;;24.08;65.39;96878.47;5033691;28;20218;-64
2021/08/15 00:15:09;;;;;;;9.45;6.97;;;;;;;24.02;65.51;96863.66;5037854;28;20229;-63
2021/08/15 00:17:35;;;;;;;9.82;8.00;;;;;;;23.85;66.66;96867.06;5033987;28;20183;-63
2021/08/15 00:20:00;;;;;;;12.38;8.60;;;;;;;23.86;67.10;96862.50;5046338;28;20212;-62
2021/08/15 00:22:26;;;;;;;8.45;7.60;;;;;;;23.92;67.50;96858.59;5038505;28;20190;-62
2021/08/15 00:24:51;;;;;;;10.60;9.15;;;;;;;23.71;68.49;96853.00;5039986;28;20184;-65
2021/08/15 00:27:17;;;;;;;11.93;8.98;;;;;;;23.76;68.88;96850.19;5035744;28;20186;-62
2021/08/15 00:29:42;;;;;;;13.13;8.40;;;;;;;23.83;67.89;96850.53;5047075;28;20213;-63
2021/08/15 00:32:08;;;;;;;8.85;7.78;;;;;;;23.79;68.19;96846.13;5035126;28;20631;-62
2021/08/15 00:34:34;;;;;;;7.90;7.10;;;;;;;23.71;67.93;96844.97;5045651;28;20257;-63
2021/08/15 00:36:59;;;;;;;9.40;7.60;;;;;;;23.63;67.78;96843.84;5040276;28;20634;-63
2021/08/15 00:39:25;;;;;;;9.88;7.78;;;;;;;23.55;68.47;96843.81;5037794;28;20203;-63
2021/08/15 00:41:51;;;;;;;11.55;8.70;;;;;;;23.47;68.73;96839.97;5047209;28;20227;-66
2021/08/15 00:44:17;;;;;;;10.52;8.07;;;;;;;23.49;68.95;96842.34;5033128;28;20649;-63
2021/08/15 00:46:43;;;;;;;11.52;8.70;;;;;;;23.51;68.95;96840.19;5044848;28;20190;-63
2021/08/15 00:49:09;;;;;;;9.15;7.80;;;;;;;23.59;69.03;96842.09;5040899;28;20193;-62
2021/08/15 00:51:34;;;;;;;10.55;8.55;;;;;;;23.60;68.80;96835.63;5041080;28;20190;-62
2021/08/15 00:53:59;;;;;;;9.32;8.23;;;;;;;23.58;68.88;96829.78;5041249;28;20276;-63
2021/08/15 00:56:26;;;;;;;10.80;9.00;;;;;;;23.68;69.01;96826.06;5053837;28;20189;-62
2021/08/15 00:58:52;;;;;;;10.98;9.50;;;;;;;23.57;69.71;96830.91;5046715;28;20213;-65
2021/08/15 01:01:18;;;;;;;11.45;8.98;;;;;;;23.44;70.29;96827.19;5041790;28;20268;-63
2021/08/15 01:03:44;;;;;;;13.15;10.00;;;;;;;23.40;70.65;96822.78;5040712;28;20194;-63
2021/08/15 01:06:10;;;;;;;12.07;9.98;;;;;;;23.37;71.21;96821.50;5050311;28;20190;-62
2021/08/15 01:08:36;;;;;;;12.15;10.43;;;;;;;23.36;71.05;96816.44;5046288;28;20188;-62
2021/08/15 01:11:05;;;;;;;13.65;9.93;;;;;;;23.38;71.09;96809.69;5046914;28;20190;-62
2021/08/15 01:13:32;;;;;;;10.85;9.75;;;;;;;23.29;nan;96805.41;5045458;28;20186;-62
2021/08/15 01:16:01;;;;;;;11.18;9.35;;;;;;;23.36;70.78;96808.41;5038569;28;20282;-65
2021/08/15 01:18:30;;;;;;;15.10;9.10;;;;;;;23.27;71.34;96803.03;5051167;28;20182;-65
2021/08/15 01:21:03;;;;;;;14.23;9.25;;;;;;;23.27;71.03;96800.38;5040356;28;20270;-66
2021/08/15 01:23:32;;;;;;;11.27;9.23;;;;;;;23.25;70.74;96802.53;5050818;28;20196;-65
2021/08/15 01:26:00;;;;;;;10.73;8.60;;;;;;;23.24;70.99;96810.91;5052978;28;20178;-65
2021/08/15 01:28:26;;;;;;;10.93;8.75;;;;;;;23.06;71.49;96801.97;5036529;28;20273;-64
2021/08/15 01:30:51;;;;;;;11.15;9.05;;;;;;;22.98;71.37;96794.69;5049436;28;20619;-65
2021/08/15 01:33:23;;;;;;;9.93;8.45;;;;;;;22.98;71.46;96789.34;5042428;28;20193;-64
2021/08/15 01:35:49;;;;;;;10.52;8.65;;;;;;;23.00;71.26;96789.84;5041582;28;20186;-65
2021/08/15 01:38:14;;;;;;;11.07;8.95;;;;;;;22.93;71.98;96798.28;5049666;28;20767;-65
2021/08/15 01:40:39;;;;;;;13.50;8.40;;;;;;;22.87;72.06;96788.00;5035869;28;20238;-65
2021/08/15 01:43:05;;;;;;;11.55;8.70;;;;;;;22.79;72.57;96787.66;5047131;28;20190;-64
2021/08/15 01:45:30;;;;;;;10.05;9.00;;;;;;;22.62;73.43;96792.06;5035161;28;20194;-64
2021/08/15 01:47:56;;;;;;;11.80;9.27;;;;;;;22.57;74.20;96792.97;5038500;28;20276;-68
2021/08/15 01:50:21;;;;;;;12.80;9.40;;;;;;;22.84;72.98;96784.09;5034931;28;20179;-65
2021/08/15 01:52:46;;;;;;;10.27;9.07;;;;;;;22.94;72.63;96785.72;5049363;28;20190;-65
2021/08/15 01:55:12;;;;;;;11.38;9.75;;;;;;;22.95;72.63;96784.63;5040873;28;20196;-65
2021/08/15 01:57:37;;;;;;;13.02;10.32;;;;;;;22.86;72.91;96789.09;5051613;28;20654;-65
2021/08/15 02:00:04;;;;;;;14.75;11.23;;;;;;;22.73;73.48;96780.06;5043688;28;20250;-65
2021/08/15 02:02:30;;;;;;;17.58;10.40;;;;;;;22.55;74.85;96778.34;5034302;28;20293;-64
2021/08/15 02:04:55;;;;;;;13.93;11.20;;;;;;;22.52;75.59;96787.72;5049563;28;20734;-68
2021/08/15 02:07:21;;;;;;;14.88;11.43;;;;;;;22.43;75.93;96786.88;5040950;28;20255;-66
2021/08/15 02:09:46;;;;;;;14.57;10.82;;;;;;;22.51;75.69;96786.19;5044301;28;20511;-64
2021/08/15 02:12:12;;;;;;;16.70;9.95;;;;;;;22.54;75.80;96790.13;5045575;28;20588;-64
2021/08/15 02:14:37;;;;;;;14.68;10.90;;;;;;;22.59;75.66;96781.97;5038023;28;20265;-64
2021/08/15 02:17:03;;;;;;;14.70;10.70;;;;;;;22.44;76.00;96780.47;5047275;28;20189;-64
2021/08/15 02:19:28;;;;;;;11.68;9.68;;;;;;;22.35;76.19;96782.25;5039608;28;20214;-64
2021/08/15 02:21:53;;;;;;;14.82;9.63;;;;;;;22.34;76.00;96778.03;5051884;28;20653;-68
2021/08/15 02:24:19;;;;;;;12.25;9.50;;;;;;;22.29;76.65;96780.81;5038307;28;20187;-65
2021/08/15 02:26:44;;;;;;;12.15;10.18;;;;;;;22.28;76.92;96785.34;5048415;28;20192;-65
2021/08/15 02:29:09;;;;;;;14.30;11.05;;;;;;;22.30;77.13;96780.50;5036107;28;20650;-64
2021/08/15 02:31:35;;;;;;;13.80;10.00;;;;;;;22.28;77.36;96781.91;5048178;28;20182;-64
2021/08/15 02:34:00;;;;;;;12.07;10.77;;;;;;;22.24;78.02;96780.91;5046712;28;20627;-64
2021/08/15 02:36:25;;;;;;;11.50;10.23;;;;;;;22.22;78.02;96786.56;5039450;28;20190;-66
2021/08/15 02:38:51;;;;;;;12.75;10.48;;;;;;;22.08;78.24;96783.13;5043431;28;20217;-65
2021/08/15 02:41:16;;;;;;;11.85;9.23;;;;;;;22.14;77.95;96784.59;5049031;28;20745;-64
2021/08/15 02:43:42;;;;;;;14.30;9.93;;;;;;;22.06;78.37;96784.53;5040684;28;20182;-64
2021/08/15 02:46:07;;;;;;;13.60;9.43;;;;;;;21.93;78.70;96788.75;5041310;28;20182;-65
2021/08/15 02:48:33;;;;;;;11.20;9.70;;;;;;;22.01;78.48;96789.97;5045796;28;20186;-64
2021/08/15 02:50:58;;;;;;;14.75;10.75;;;;;;;22.00;78.01;96791.84;5037886;28;20321;-67
2021/08/15 02:53:25;;;;;;;14.32;10.27;;;;;;;22.01;78.36;96793.44;5049299;28;20190;-64
2021/08/15 02:55:50;;;;;;;12.30;9.52;;;;;;;22.04;78.20;96790.16;5044077;28;20545;-64
2021/08/15 02:58:15;;;;;;;11.23;10.00;;;;;;;22.01;78.15;96789.97;5039632;28;20185;-64
2021/08/15 03:00:41;;;;;;;12.77;10.13;;;;;;;22.02;77.95;96786.97;5043069;28;20197;-64
2021/08/15 03:03:06;;;;;;;12.07;9.70;;;;;;;22.02;77.88;96791.53;5038229;28;20182;-64
2021/08/15 03:05:31;;;;;;;12.43;10.35;;;;;;;22.06;77.75;96789.88;5042761;28;20191;-65
2021/08/15 03:07:57;;;;;;;11.10;9.73;;;;;;;22.05;77.80;96794.41;5045411;28;20182;-68
2021/08/15 03:10:22;;;;;;;13.60;9.73;;;;;;;21.88;78.45;96792.31;5038252;28;20194;-64
2021/08/15 03:12:47;;;;;;;12.88;9.23;;;;;;;21.97;78.40;96795.09;5045486;28;20534;-65
2021/08/15 03:15:13;;;;;;;11.40;9.63;;;;;;;21.96;78.19;96791.63;5041231;28;20611;-64
2021/08/15 03:17:39;;;;;;;12.38;9.48;;;;;;;22.00;78.11;96791.84;5039483;28;20237;-64
2021/08/15 03:20:05;;;;;;;10.55;8.85;;;;;;;22.13;77.12;96788.34;5044236;28;20263;-65
2021/08/15 03:22:31;;;;;;;11.13;8.95;;;;;;;21.99;77.61;96782.25;5041305;28;20186;-65
2021/08/15 03:24:56;;;;;;;12.35;8.63;;;;;;;21.96;77.72;96780.97;5040176;28;20526;-68
2021/08/15 03:27:21;;;;;;;11.57;8.68;;;;;;;21.94;76.97;96777.81;5036233;28;20515;-64
2021/08/15 03:29:47;;;;;;;11.15;7.97;;;;;;;21.95;76.72;96779.41;5038653;28;20195;-64
2021/08/15 03:32:12;;;;;;;9.13;8.23;;;;;;;21.94;76.77;96769.00;5044130;28;20659;-65
2021/08/15 03:34:38;;;;;;;11.07;7.90;;;;;;;21.95;76.77;96770.59;5046850;28;20177;-64
2021/08/15 03:37:03;;;;;;;9.68;8.52;;;;;;;22.02;76.92;96762.16;5045856;28;20539;-64
2021/08/15 03:39:31;;;;;;;10.02;8.25;;;;;;;22.01;76.70;96760.59;5046196;28;20230;-64
2021/08/15 03:41:58;;;;;;;10.98;8.65;;;;;;;22.10;76.16;96756.13;5041683;28;20182;-68
2021/08/15 03:44:26;;;;;;;10.57;8.32;;;;;;;21.98;76.46;96757.44;5043279;28;20232;-64
2021/08/15 03:46:52;;;;;;;9.90;8.90;;;;;;;21.99;76.11;96760.91;5041035;28;20187;-64
2021/08/15 03:49:18;;;;;;;10.25;7.90;;;;;;;22.02;76.03;96760.28;5045311;28;20275;-64
2021/08/15 03:51:44;;;;;;;11.02;8.30;;;;;;;21.94;76.16;96761.81;5034855;28;20615;-64
2021/08/15 03:54:09;;;;;;;11.20;8.50;;;;;;;21.95;75.97;96759.94;5042301;28;20273;-64
2021/08/15 03:56:34;;;;;;;9.93;8.20;;;;;;;21.73;76.87;96749.16;5039838;28;20263;-64
2021/08/15 03:59:00;;;;;;;10.48;8.07;;;;;;;21.65;77.86;96755.19;5037972;28;20190;-68
2021/08/15 04:01:25;;;;;;;10.23;8.68;;;;;;;21.87;77.10;96756.03;5047066;28;20192;-64
2021/08/15 04:03:51;;;;;;;9.40;8.48;;;;;;;21.83;76.99;96762.28;5034962;28;20210;-64
2021/08/15 04:06:21;;;;;;;12.23;8.90;;;;;;;21.74;77.98;96751.50;5045873;28;20190;-65
2021/08/15 04:08:47;;;;;;;12.98;9.55;;;;;;;21.90;77.16;96758.09;5048972;28;20221;-64
2021/08/15 04:11:13;;;;;;;13.35;10.15;;;;;;;21.81;77.92;96764.44;5035159;28;20197;-65
2021/08/15 04:13:38;;;;;;;16.67;11.25;;;;;;;21.66;79.36;96756.75;5043264;28;20709;-64
2021/08/15 04:16:04;;;;;;;15.80;11.25;;;;;;;21.73;79.40;96757.16;5041803;28;20190;-65
2021/08/15 04:18:29;;;;;;;15.88;10.68;;;;;;;21.72;79.78;96753.69;5031851;28;20178;-64
2021/08/15 04:20:55;;;;;;;14.60;11.73;;;;;;;21.63;80.42;96749.34;5030456;28;20221;-64
2021/08/15 04:23:20;;;;;;;11.82;10.10;;;;;;;21.56;80.46;96747.88;5039412;28;20240;-65
2021/08/15 04:25:45;;;;;;;14.30;10.88;;;;;;;21.55;81.47;96748.97;5038643;28;20195;-65
2021/08/15 04:28:11;;;;;;;14.60;11.50;;;;;;;21.51;82.15;96744.53;5047007;28;20194;-65
2021/08/15 04:30:36;;;;;;;18.98;12.48;;;;;;;21.40;82.88;96746.59;5035471;28;20198;-65
2021/08/15 04:33:01;;;;;;;15.88;11.80;;;;;;;21.35;82.86;96746.69;5042909;28;20181;-67
2021/08/15 04:35:27;;;;;;;13.68;11.13;;;;;;;21.27;83.49;96742.06;5042181;28;20281;-64
2021/08/15 04:37:52;;;;;;;15.07;12.02;;;;;;;21.32;83.41;96739.28;5036702;28;20194;-64
2021/08/15 04:40:18;;;;;;;13.05;11.32;;;;;;;21.26;83.77;96734.34;5046627;28;20257;-64
2021/08/15 04:42:43;;;;;;;13.32;11.40;;;;;;;21.29;83.83;96733.78;5036023;28;20182;-64
2021/08/15 04:45:09;;;;;;;13.88;11.85;;;;;;;21.16;84.52;96738.00;5042180;28;20178;-64
2021/08/15 04:47:34;;;;;;;16.75;11.98;;;;;;;21.14;85.02;96740.94;5043421;28;20239;-64
2021/08/15 04:50:00;;;;;;;14.18;11.32;;;;;;;21.32;84.00;96739.28;5036674;28;20194;-68
2021/08/15 04:52:25;;;;;;;13.65;11.05;;;;;;;21.35;84.08;96733.34;5044687;28;20241;-65
2021/08/15 04:54:51;;;;;;;15.30;13.10;;;;;;;21.49;83.70;96742.16;5040855;28;20640;-64
2021/08/15 04:57:16;;;;;;;16.40;11.52;;;;;;;21.53;83.82;96735.13;5040959;28;20643;-64
2021/08/15 04:59:41;;;;;;;17.42;13.23;;;;;;;21.74;83.11;96740.84;5031414;28;20207;-64
2021/08/15 05:02:07;;;;;;;14.77;12.70;;;;;;;21.83;82.76;96743.59;5042028;28;20183;-64
2021/08/15 05:04:32;;;;;;;14.27;11.50;;;;;;;22.03;81.92;96753.06;5039347;28;20270;-64
2021/08/15 05:06:58;;;;;;;13.48;10.82;;;;;;;22.30;80.42;96744.97;5043490;28;20193;-63
2021/08/15 05:09:23;;;;;;;10.60;9.38;;;;;;;22.61;78.42;96745.06;5034671;28;20786;-65
2021/08/15 05:11:49;;;;;;;14.57;9.90;;;;;;;22.93;77.24;96752.03;5036830;28;20598;-65
2021/08/15 05:14:14;;;;;;;12.40;10.65;;;;;;;23.33;74.84;96750.97;5044818;28;20192;-64
2021/08/15 05:16:40;;;;;;;13.63;10.43;;;;;;;23.57;73.67;96756.75;5032811;28;20277;-64
2021/08/15 05:19:05;;;;;;;13.70;10.73;;;;;;;23.90;71.93;96759.06;5046167;28;20532;-67
2021/08/15 05:21:31;;;;;;;12.20;10.27;;;;;;;24.14;70.76;96758.59;5033107;28;20282;-64
2021/08/15 05:23:58;;;;;;;15.85;10.68;;;;;;;24.40;69.20;96754.88;5046944;28;20198;-63
2021/08/15 05:26:24;;;;;;;13.57;10.82;;;;;;;24.15;70.04;96755.59;5033552;28;20182;-62
2021/08/15 05:28:49;;;;;;;12.40;11.10;;;;;;;23.96;70.75;96757.81;5044006;28;20182;-62
2021/08/15 05:31:14;;;;;;;10.95;9.85;;;;;;;24.22;69.86;96760.53;5030698;28;20186;-62
2021/08/15 05:33:40;;;;;;;12.10;10.02;;;;;;;24.48;69.09;96752.47;5045413;28;20186;-61
2021/08/15 05:36:05;;;;;;;12.30;11.00;;;;;;;24.83;67.59;96754.81;5034864;28;20186;-65
2021/08/15 05:38:30;;;;;;;15.43;10.70;;;;;;;25.05;66.80;96758.44;5049941;28;20189;-62
2021/08/15 05:40:56;;;;;;;11.50;9.48;;;;;;;25.18;66.09;96752.88;5043853;28;20230;-62
2021/08/15 05:43:21;;;;;;;9.93;8.75;;;;;;;25.37;65.10;96752.47;5041675;28;20820;-61
2021/08/15 05:45:47;;;;;;;10.52;8.90;;;;;;;25.52;63.94;96761.91;5041779;28;20185;-62
2021/08/15 05:48:12;;;;;;;11.63;8.77;;;;;;;25.55;63.78;96756.66;5040763;28;20218;-62
2021/08/15 05:50:37;;;;;;;12.40;8.70;;;;;;;25.65;63.56;96760.91;5040487;28;20198;-62
2021/08/15 05:53:03;;;;;;;9.85;8.73;;;;;;;25.60;63.88;96753.03;5034157;28;20187;-65
2021/08/15 05:55:28;;;;;;;9.30;8.30;;;;;;;25.84;62.99;96758.59;5038389;28;20277;-63
2021/08/15 05:57:54;;;;;;;11.68;8.77;;;;;;;25.93;62.63;96758.53;5042929;28;20526;-62
2021/08/15 06:00:20;;;;;;;11.95;8.57;;;;;;;25.85;62.62;96760.16;5039725;28;20671;-62
2021/08/15 06:02:45;;;;;;;14.48;8.85;;;;;;;25.77;63.17;96766.38;5038705;28;20183;-62
2021/08/15 06:05:11;;;;;;;10.65;8.57;;;;;;;25.95;62.67;96756.31;5041573;28;20189;-62
2021/08/15 06:07:37;;;;;;;9.18;8.23;;;;;;;26.13;61.82;96760.47;5044190;28;20274;-62
2021/08/15 06:10:04;;;;;;;10.75;8.57;;;;;;;26.23;61.79;96754.72;5035658;28;20225;-65
2021/08/15 06:12:30;;;;;;;11.63;8.73;;;;;;;26.22;61.43;96753.13;5044390;28;20190;-62
2021/08/15 06:14:56;;;;;;;9.15;8.23;;;;;;;26.01;62.98;96749.63;5046258;28;20189;-63
2021/08/15 06:17:21;;;;;;;12.88;8.65;;;;;;;25.94;64.59;96752.03;5048153;28;20186;-62
2021/08/15 06:19:47;;;;;;;9.60;8.32;;;;;;;26.04;63.95;96741.69;5036775;28;20262;-62
2021/08/15 06:22:13;;;;;;;9.00;8.10;;;;;;;26.19;63.84;96742.25;5043953;28;20179;-59
2021/08/15 06:24:38;;;;;;;12.20;7.85;;;;;;;26.25;63.49;96754.41;5037896;28;20548;-60
2021/08/15 06:27:04;;;;;;;9.60;8.15;;;;;;;26.36;63.30;96750.97;5042277;28;20186;-64
2021/08/15 06:29:30;;;;;;;8.57;7.72;;;;;;;26.43;62.85;96751.22;5045128;28;20189;-60
2021/08/15 06:31:56;;;;;;;8.93;7.90;;;;;;;26.60;61.86;96739.53;5037290;28;20201;-60
2021/08/15 06:34:21;;;;;;;13.23;8.45;;;;;;;26.64;62.02;96740.44;5049615;28;20198;-60
2021/08/15 06:36:46;;;;;;;8.30;7.50;;;;;;;26.76;61.18;96737.78;5046505;28;20195;-60
2021/08/15 06:39:12;;;;;;;11.32;8.52;;;;;;;26.90;60.87;96737.53;5040894;28;20182;-59
2021/08/15 06:41:38;;;;;;;11.23;8.40;;;;;;;26.48;61.16;96729.50;5040122;28;20526;-59
2021/08/15 06:44:03;;;;;;;9.35;7.20;;;;;;;26.36;61.51;96732.16;5048392;28;20231;-60
2021/08/15 06:46:29;;;;;;;11.75;8.02;;;;;;;25.95;62.73;96727.56;5031040;28;20663;-59
2021/08/15 06:48:54;;;;;;;10.70;8.10;;;;;;;26.28;62.45;96726.84;5039298;28;20713;-59
2021/08/15 06:51:19;;;;;;;10.00;8.35;;;;;;;25.80;65.23;96722.72;5041872;28;20261;-59
2021/08/15 06:53:45;;;;;;;10.48;8.75;;;;;;;25.99;65.10;96723.09;5046668;28;20527;-59
2021/08/15 06:56:11;;;;;;;10.82;8.73;;;;;;;26.15;64.58;96717.13;5050068;28;20697;-60
2021/08/15 06:58:37;;;;;;;9.77;8.77;;;;;;;26.05;64.91;96721.00;5047625;28;20679;-61
2021/08/15 07:01:04;;;;;;;10.07;8.93;;;;;;;25.89;65.24;96726.16;5036677;28;20202;-60
2021/08/15 07:03:29;;;;;;;11.05;8.50;;;;;;;25.40;67.07;96725.00;5036900;28;20193;-60
2021/08/15 07:05:55;;;;;;;9.38;8.40;;;;;;;24.92;68.83;96719.16;5043382;28;20201;-60
2021/08/15 07:08:20;;;;;;;11.38;8.90;;;;;;;25.16;68.18;96722.88;5043602;28;20198;-59
2021/08/15 07:10:46;;;;;;;11.52;8.93;;;;;;;25.69;66.73;96723.47;5043869;28;20690;-59
2021/08/15 07:13:13;;;;;;;9.98;8.52;;;;;;;25.76;66.58;96729.09;5040510;28;20670;-60
2021/08/15 07:15:39;;;;;;;10.25;8.13;;;;;;;25.97;65.26;96728.00;5042835;28;20224;-59
2021/08/15 07:18:04;;;;;;;10.88;8.45;;;;;;;25.94;66.02;96722.50;5038263;28;20222;-59
2021/08/15 07:20:30;;;;;;;12.88;8.25;;;;;;;25.91;66.49;96723.16;5040364;28;20206;-59
2021/08/15 07:22:57;;;;;;;11.57;8.82;;;;;;;25.67;67.12;96715.72;5045768;28;20190;-59
2021/08/15 07:25:24;;;;;;;9.48;8.23;;;;;;;25.15;69.30;96718.63;5040536;28;20189;-59
2021/08/15 07:27:50;;;;;;;9.65;8.18;;;;;;;25.51;67.79;96717.38;5036825;28;20221;-60
2021/08/15 07:30:16;;;;;;;9.57;8.48;;;;;;;25.72;67.00;96720.09;5042703;28;20608;-60
2021/08/15 07:32:53;;;;;;;10.43;8.82;;;;;;;25.81;66.65;96713.56;5034099;28;20544;-59
2021/08/15 07:35:19;;;;;;;9.38;8.35;;;;;;;25.71;66.29;96713.94;5039186;28;20181;-59
2021/08/15 07:37:45;;;;;;;11.95;9.55;;;;;;;25.43;67.64;96712.81;5040814;28;20552;-59
2021/08/15 07:40:11;;;;;;;9.05;8.15;;;;;;;25.56;67.64;96712.63;5044999;28;20241;-62
2021/08/15 07:42:36;;;;;;;10.02;9.00;;;;;;;25.93;65.78;96718.22;5035279;28;20222;-61
2021/08/15 07:45:01;;;;;;;11.77;9.20;;;;;;;25.08;68.42;96714.84;5046398;28;20643;-59
2021/08/15 07:47:27;;;;;;;9.57;8.13;;;;;;;25.76;66.40;96716.44;5039501;28;20194;-59
2021/08/15 07:49:52;;;;;;;10.45;8.35;;;;;;;26.46;63.85;96721.00;5051498;28;20182;-59
2021/08/15 07:52:18;;;;;;;10.77;8.57;;;;;;;26.88;62.61;96724.41;5049298;28;20528;-59
2021/08/15 07:54:43;;;;;;;12.25;8.52;;;;;;;26.81;62.21;96718.75;5033048;28;20197;-60
2021/08/15 07:57:08;;;;;;;9.10;8.07;;;;;;;26.85;62.47;96717.00;5041665;28;20195;-61
2021/08/15 07:59:34;;;;;;;8.68;7.78;;;;;;;26.78;61.61;96718.63;5038160;28;20709;-59
2021/08/15 08:01:59;;;;;;;10.32;7.38;;;;;;;27.15;61.03;96714.91;5029234;28;20281;-63
2021/08/15 08:04:24;;;;;;;11.05;8.18;;;;;;;27.19;60.91;96710.47;5034283;28;20186;-60
2021/08/15 08:06:50;;;;;;;8.77;7.72;;;;;;;26.69;62.46;96721.44;5048041;28;20183;-58
2021/08/15 08:09:16;;;;;;;15.15;8.20;;;;;;;26.99;61.67;96722.06;5037683;28;20245;-60
2021/08/15 08:11:41;;;;;;;11.00;8.35;;;;;;;27.03;61.16;96722.22;5041721;28;20702;-59
2021/08/15 08:14:07;;;;;;;9.10;8.02;;;;;;;26.80;62.38;96714.50;5044811;28;20616;-60
2021/08/15 08:16:32;;;;;;;11.75;8.88;;;;;;;26.86;62.07;96715.09;5033267;28;20280;-61
2021/08/15 08:18:58;;;;;;;9.88;8.40;;;;;;;26.82;61.56;96708.78;5043411;28;20182;-58
2021/08/15 08:21:23;;;;;;;9.55;7.70;;;;;;;27.01;61.60;96711.78;5041613;28;20241;-60
2021/08/15 08:23:48;;;;;;;9.18;8.18;;;;;;;26.91;60.91;96700.66;5032345;28;20186;-56
2021/08/15 08:26:14;;;;;;;10.20;8.15;;;;;;;26.86;60.91;96713.16;5044277;28;20193;-60
2021/08/15 08:28:39;;;;;;;9.10;7.97;;;;;;;26.99;60.71;96694.38;5050099;28;20181;-59
2021/08/15 08:31:04;;;;;;;11.48;7.43;;;;;;;27.43;59.62;96703.50;5046904;28;20186;-59
2021/08/15 08:33:30;;;;;;;8.90;7.47;;;;;;;27.67;58.12;96700.81;5037288;28;20189;-60
2021/08/15 08:35:55;;;;;;;8.77;7.10;;;;;;;27.63;58.58;96695.34;5039975;28;20244;-60
2021/08/15 08:38:20;;;;;;;9.50;7.90;;;;;;;27.89;57.50;96689.56;5043601;28;20235;-60
2021/08/15 08:40:47;;;;;;;13.77;8.65;;;;;;;27.61;58.34;96691.41;5034052;28;20242;-62
2021/08/15 08:43:13;;;;;;;10.85;7.82;;;;;;;27.67;58.30;96698.91;5036405;28;20573;-63
2021/08/15 08:45:41;;;;;;;9.75;7.22;;;;;;;27.54;58.93;96699.25;5039147;28;20186;-60
2021/08/15 08:48:07;;;;;;;8.27;7.43;;;;;;;27.69;58.84;96693.19;5034951;28;20191;-61
2021/08/15 08:50:33;;;;;;;10.02;7.47;;;;;;;27.98;58.21;96702.88;5039397;28;20399;-60
2021/08/15 08:52:59;;;;;;;10.30;7.90;;;;;;;28.14;57.58;96695.72;5037576;28;20596;-60
2021/08/15 08:55:25;;;;;;;8.73;7.80;;;;;;;28.31;57.11;96692.72;5038626;28;20185;-61
2021/08/15 08:57:50;;;;;;;9.38;7.38;;;;;;;28.44;56.60;96688.06;5039112;28;20206;-63
2021/08/15 09:00:18;;;;;;;9.95;7.32;;;;;;;28.47;56.21;96687.38;5033719;28;20229;-61
2021/08/15 09:02:44;;;;;;;10.60;7.85;;;;;;;28.42;56.61;96683.00;5045564;28;20182;-60
2021/08/15 09:05:10;;;;;;;10.23;7.38;;;;;;;28.26;55.77;96679.47;5042130;28;20650;-59
2021/08/15 09:07:40;;;;;;;8.68;6.63;;;;;;;27.87;57.02;96672.94;5041268;28;20178;-61
2021/08/15 09:10:10;;;;;;;7.95;7.15;;;;;;;27.52;57.82;96670.00;5035315;28;20209;-60
2021/08/15 09:12:58;;;;;;;8.80;7.10;;;;;;;27.41;58.64;96668.06;5044601;28;20198;-61
2021/08/15 09:15:25;;;;;;;8.88;6.97;;;;;;;27.48;59.14;96665.56;5043458;28;20194;-61
2021/08/15 09:17:50;;;;;;;12.05;7.47;;;;;;;27.12;59.37;96667.16;5041985;28;20666;-60
2021/08/15 09:20:32;;;;;;;10.07;7.63;;;;;;;27.49;59.71;96664.44;5049093;28;20225;-61
2021/08/15 09:22:58;;;;;;;10.00;7.53;;;;;;;27.46;58.56;96657.84;5046809;28;20178;-61
2021/08/15 09:25:24;;;;;;;8.15;7.32;;;;;;;27.45;58.35;96656.28;5047342;28;20202;-60
2021/08/15 09:27:55;;;;;;;7.90;6.57;;;;;;;28.02;57.19;96655.28;5040944;28;20185;-61
2021/08/15 09:30:31;;;;;;;9.32;7.22;;;;;;;28.29;56.09;96657.22;5026180;28;20706;-61
2021/08/15 09:32:59;;;;;;;7.50;6.60;;;;;;;28.45;54.68;96652.66;5036520;28;20201;-62
2021/08/15 09:35:29;;;;;;;8.65;6.50;;;;;;;28.51;54.21;96645.09;5046999;28;20278;-62
2021/08/15 09:37:58;;;;;;;8.23;6.70;;;;;;;28.78;54.36;96648.91;5043270;28;20181;-61
2021/08/15 09:40:42;;;;;;;10.95;7.78;;;;;;;28.76;55.05;96648.44;5039748;28;20237;-62
2021/08/15 09:43:10;;;;;;;8.15;7.05;;;;;;;29.01;54.46;96647.16;5029377;28;20344;-64
2021/08/15 09:45:39;;;;;;;8.32;6.53;;;;;;;29.21;53.03;96648.81;5032592;28;20174;-64
2021/08/15 09:48:24;;;;;;;7.03;6.20;;;;;;;29.45;52.95;96653.25;5030089;28;20178;-62
2021/08/15 09:51:07;;;;;;;9.93;7.00;;;;;;;29.75;52.16;96646.22;5036420;28;20614;-62
2021/08/15 09:53:34;;;;;;;7.97;6.05;;;;;;;30.03;50.65;96646.06;5038394;28;20179;-61
2021/08/15 09:55:59;;;;;;;10.73;6.88;;;;;;;29.97;50.72;96647.47;5042852;28;20214;-62
2021/08/15 09:58:25;;;;;;;6.88;6.00;;;;;;;29.66;50.64;96642.91;5033544;28;20262;-62
2021/08/15 10:00:51;;;;;;;7.05;5.88;;;;;;;29.61;50.06;96645.09;5048759;28;20198;-62
2021/08/15 10:03:16;;;;;;;6.63;5.65;;;;;;;29.51;50.29;96638.34;5034329;28;20260;-66
2021/08/15 10:05:45;;;;;;;6.88;6.18;;;;;;;29.58;49.93;96635.00;5039951;28;20189;-62
2021/08/15 10:08:10;;;;;;;7.20;6.00;;;;;;;29.69;50.00;96641.44;5041670;28;20244;-62
2021/08/15 10:10:37;;;;;;;7.18;5.75;;;;;;;29.64;49.99;96642.50;5049105;28;20205;-64
2021/08/15 10:13:07;;;;;;;6.43;5.78;;;;;;;29.54;51.56;96634.13;5073787;28;20215;-63
2021/08/15 10:15:34;;;;;;;8.70;6.47;;;;;;;29.53;51.68;96638.78;5042484;28;20297;-63
2021/08/15 10:18:03;;;;;;;8.48;7.13;;;;;;;29.42;52.09;96623.47;5043858;28;20300;-62
2021/08/15 10:20:30;;;;;;;7.30;6.30;;;;;;;29.22;52.60;96626.06;5041299;28;20199;-63
2021/08/15 10:23:10;;;;;;;8.15;6.53;;;;;;;29.31;51.98;96615.84;5035955;28;20186;-63
2021/08/15 10:25:41;;;;;;;9.02;6.55;;;;;;;29.26;51.70;96616.13;5045097;28;20182;-63
2021/08/15 10:28:27;;;;;;;7.72;6.50;;;;;;;29.56;51.46;96618.38;5043412;28;20212;-64
2021/08/15 10:30:53;;;;;;;7.68;6.88;;;;;;;30.32;49.41;96616.81;5036660;28;20198;-61
2021/08/15 10:33:20;;;;;;;7.40;5.70;;;;;;;31.32;47.26;96622.84;5046124;28;20189;-63
2021/08/15 10:36:14;;;;;;;7.00;5.95;;;;;;;31.78;46.45;96616.13;5045288;28;20186;-63
2021/08/15 10:38:40;;;;;;;9.15;6.60;;;;;;;31.95;46.32;96614.00;5045671;28;20190;-63
2021/08/15 10:41:05;;;;;;;7.47;6.60;;;;;;;31.45;47.66;96601.72;5048869;28;20252;-63
2021/08/15 10:43:31;;;;;;;7.53;6.53;;;;;;;31.40;46.99;96605.53;5035154;28;20186;-63
2021/08/15 10:46:08;;;;;;;7.25;6.30;;;;;;;30.74;47.95;96609.50;5044287;28;20178;-63
2021/08/15 10:49:09;;;;;;;12.13;6.45;;;;;;;31.29;48.03;96597.25;5033310;28;20265;-63
2021/08/15 10:51:49;;;;;;;8.43;6.63;;;;;;;31.82;47.23;96593.72;5020408;28;20182;-63
2021/08/15 10:54:38;;;;;;;7.47;5.88;;;;;;;31.53;47.43;96601.47;5041981;28;20232;-65
2021/08/15 10:57:04;;;;;;;10.55;6.80;;;;;;;31.17;48.01;96602.09;5028713;28;20659;-63
2021/08/15 10:59:35;;;;;;;8.90;7.07;;;;;;;31.26;48.35;96595.28;5047720;28;20209;-62
2021/08/15 11:02:13;;;;;;;7.00;6.30;;;;;;;31.08;48.84;96594.22;5040965;28;20193;-63
2021/08/15 11:04:40;;;;;;;8.38;6.25;;;;;;;31.08;47.96;96594.22;5039195;28;20311;-63
2021/08/15 11:07:06;;;;;;;9.15;6.07;;;;;;;31.13;47.84;96587.72;5036645;28;20189;-62
2021/08/15 11:09:57;;;;;;;8.40;6.57;;;;;;;30.94;48.19;96581.22;5036710;28;20553;-62
2021/08/15 11:12:24;;;;;;;6.80;6.20;;;;;;;30.97;48.60;96582.44;5041392;28;20675;-65
2021/08/15 11:15:08;;;;;;;7.53;6.38;;;;;;;30.70;48.88;96581.63;5046419;28;20254;-62
2021/08/15 11:17:36;;;;;;;9.52;6.63;;;;;;;30.66;49.20;96566.44;5044588;28;20752;-62
2021/08/15 11:20:31;;;;;;;10.80;6.70;;;;;;;31.16;47.94;96566.09;5045697;28;20210;-63
2021/08/15 11:23:07;;;;;;;6.85;6.15;;;;;;;31.74;46.75;96563.03;5043134;28;20192;-62
2021/08/15 11:25:32;;;;;;;7.95;6.35;;;;;;;31.73;46.41;96551.41;5041364;28;20169;-62